Barton, South Carolina
Current Conditions -  °F | °C
As of 5:55 PM on Tuesday 21 Oct 2014 (Local Time) from KJYL Reporting Station
Clear Clear  
Wind Chill: 81°   Ceiling: Unl
Heat Index: 81°   Visibility: 10mi
Dew Point: 52°   Wind: 6mph
Humidity: 36%   Direction: 310°NW
Pressure: 29.89"   Gusts: NA
Location:  32.8821°N, 81.3268°W
Report Text: KJYL 212155Z AUTO 31005KT 10SM CLR 27/11 A2989 RMK AO2 T02730110
Loading
Personal Weather Stations






























Interactive Weather Map
Tropical Storm Tracking
New forecast layout! Learn more

10-Day Weather Forecast

Advertisements
Track Severe Weather on mobile